Time;durP1;ratioP1;P1;durP2;ratioP2;P2;SDS_P1;SDS_P2;PMS_P1;PMS_P2;Temp;Humidity;BMP_temperature;BMP_pressure;BME280_temperature;BME280_humidity;BME280_pressure;Samples;Min_cycle;Max_cycle;Signal;HPM_P1;HPM_P2
2023/05/20 00:01:57;;;;;;;3.50;3.20;;;14.30;80.20;;;14.20;67.70;98143.66;5007763;28;20466;-73
2023/05/20 00:04:24;;;;;;;5.47;3.30;;;14.30;80.20;;;14.13;67.72;98111.19;4999669;28;20476;-76
2023/05/20 00:06:52;;;;;;;3.83;3.37;;;14.30;80.20;;;13.94;68.34;98090.63;5011690;28;20468;-76
2023/05/20 00:09:19;;;;;;;4.27;3.77;;;14.30;80.40;;;14.00;68.23;98108.69;4994539;28;21094;-76
2023/05/20 00:11:46;;;;;;;6.20;3.50;;;14.30;80.40;;;14.19;68.46;98130.34;5014609;28;20510;-73
2023/05/20 00:14:15;;;;;;;4.47;2.97;;;14.30;80.50;;;14.07;68.38;98114.84;4999613;28;20448;-78
2023/05/20 00:16:42;;;;;;;5.33;3.57;;;14.20;80.60;;;14.15;68.18;98125.34;4994962;28;20460;-77
2023/05/20 00:19:10;;;;;;;4.50;3.90;;;14.30;80.70;;;14.14;68.81;98121.00;4998733;28;21036;-79
2023/05/20 00:21:37;;;;;;;3.60;3.23;;;14.30;80.80;;;13.94;68.56;98096.88;5020688;28;20461;-78
2023/05/20 00:24:05;;;;;;;3.93;3.53;;;14.30;80.80;;;14.05;69.14;98119.69;5026701;28;20527;-79
2023/05/20 00:26:32;;;;;;;4.10;3.70;;;14.30;80.90;;;14.16;68.63;98120.75;5020972;28;20456;-77
2023/05/20 00:28:59;;;;;;;5.47;3.10;;;14.30;81.00;;;14.24;68.40;98119.59;5027752;28;20460;-77
2023/05/20 00:31:28;;;;;;;5.40;3.50;;;14.30;80.90;;;14.22;68.63;98108.94;5006148;28;20483;-79
2023/05/20 00:33:55;;;;;;;3.80;3.50;;;14.30;80.90;;;14.06;69.36;98115.91;5004933;28;20494;-76
2023/05/20 00:36:22;;;;;;;4.80;3.63;;;14.30;81.00;;;14.20;68.45;98116.50;4994662;28;21318;-79
2023/05/20 00:38:50;;;;;;;4.67;3.70;;;14.30;81.00;;;14.13;68.69;98113.91;4997228;28;20960;-79
2023/05/20 00:41:17;;;;;;;5.23;3.60;;;14.30;81.00;;;14.19;68.84;98119.47;5010789;28;20941;-78
2023/05/20 00:43:44;;;;;;;5.47;4.20;;;14.40;81.10;;;14.23;69.13;98117.94;5020065;28;20451;-77
2023/05/20 00:46:12;;;;;;;3.90;3.50;;;14.30;81.10;;;14.22;68.99;98117.09;5004579;28;21100;-76
2023/05/20 00:48:44;;;;;;;3.40;3.10;;;14.40;81.20;;;14.27;68.68;98125.38;5017374;28;20457;-77
2023/05/20 00:51:13;;;;;;;4.13;3.73;;;14.40;81.20;;;14.14;68.95;98101.16;5012401;28;20476;-75
2023/05/20 00:53:41;;;;;;;4.70;4.00;;;14.40;81.20;;;14.23;68.96;98120.66;5014945;28;20452;-78
2023/05/20 00:56:10;;;;;;;4.10;3.70;;;14.40;81.20;;;14.32;68.99;98119.19;5012517;28;20511;-79
2023/05/20 00:58:37;;;;;;;4.40;4.00;;;14.40;81.30;;;14.15;69.27;98114.50;5000341;28;20527;-78
2023/05/20 01:01:05;;;;;;;3.27;3.00;;;14.30;81.20;;;14.27;68.79;98110.94;4997838;28;20460;-76
2023/05/20 01:03:33;;;;;;;3.97;3.67;;;14.40;81.30;;;14.17;69.27;98101.50;5013413;28;20481;-80
2023/05/20 01:06:02;;;;;;;3.80;3.40;;;14.30;81.30;;;14.20;69.48;98110.25;5003199;28;20888;-79
2023/05/20 01:08:30;;;;;;;3.87;3.20;;;14.30;81.40;;;14.11;69.02;98083.44;5014624;28;20531;-77
2023/05/20 01:11:04;;;;;;;3.83;3.30;;;14.30;81.50;;;14.21;68.74;98103.75;4994670;28;20451;-79
2023/05/20 01:13:39;;;;;;;4.97;4.17;;;14.30;81.50;;;14.17;69.04;98096.06;5021840;28;20535;-77
2023/05/20 01:16:08;;;;;;;4.73;4.30;;;14.30;81.60;;;14.05;69.35;98092.53;5039435;28;20522;-74
2023/05/20 01:18:37;;;;;;;4.40;4.00;;;14.30;81.70;;;14.16;69.77;98099.84;5018410;28;20507;-81
2023/05/20 01:21:08;;;;;;;4.20;3.80;;;14.30;81.80;;;14.19;69.52;98093.13;5023412;28;20530;-75
2023/05/20 01:23:39;;;;;;;4.10;3.57;;;14.30;81.90;;;14.23;69.36;98093.47;5017793;28;20498;-77
2023/05/20 01:26:07;;;;;;;4.17;3.77;;;14.30;82.00;;;14.16;69.63;98085.44;5015282;28;20499;-74
2023/05/20 01:28:35;;;;;;;4.53;4.10;;;14.30;81.90;;;14.08;69.89;98083.91;5004049;28;20453;-78
2023/05/20 01:31:05;;;;;;;5.47;3.97;;;14.30;82.00;;;14.10;70.07;98083.66;5025093;28;20463;-74
2023/05/20 01:33:36;;;;;;;4.03;3.47;;;14.30;82.20;;;14.10;70.15;98087.22;5000254;28;20944;-76
2023/05/20 01:36:06;;;;;;;4.60;3.90;;;14.30;82.20;;;13.99;70.45;98088.88;5016903;28;20473;-75
2023/05/20 01:38:36;;;;;;;4.50;4.10;;;14.20;82.30;;;14.08;70.23;98086.63;5022940;28;20558;-79
2023/05/20 01:41:06;;;;;;;3.60;3.20;;;14.20;82.30;;;14.18;70.02;98091.47;5017348;28;20481;-76
2023/05/20 01:43:33;;;;;;;4.10;3.50;;;14.30;82.40;;;14.11;70.04;98091.59;5000940;28;20451;-78
2023/05/20 01:46:02;;;;;;;7.90;4.37;;;14.30;82.30;;;14.04;70.29;98074.59;5023609;28;20462;-74
2023/05/20 01:48:29;;;;;;;4.03;3.43;;;14.30;82.50;;;14.12;69.93;98081.56;5036598;28;20455;-77
2023/05/20 01:50:56;;;;;;;4.43;4.03;;;14.20;82.40;;;14.20;69.74;98083.09;5018477;28;20870;-76
2023/05/20 01:53:24;;;;;;;3.67;3.37;;;14.30;82.40;;;14.22;69.78;98086.38;5023613;28;20477;-79
2023/05/20 01:55:53;;;;;;;5.67;4.13;;;14.20;82.50;;;14.20;69.83;98089.31;5021890;28;20621;-78
2023/05/20 01:58:20;;;;;;;4.57;4.17;;;14.20;82.50;;;14.14;69.68;98091.09;5018396;28;20483;-76
2023/05/20 02:00:47;;;;;;;5.27;4.70;;;14.30;82.50;;;14.17;70.18;98090.63;4998048;28;20454;-76
2023/05/20 02:03:14;;;;;;;4.80;4.30;;;14.30;82.50;;;14.03;70.31;98089.22;4998999;28;20459;-78
2023/05/20 02:05:41;;;;;;;5.07;4.40;;;14.20;82.40;;;14.14;70.26;98090.28;5006818;28;20666;-75
2023/05/20 02:08:08;;;;;;;5.00;4.50;;;14.20;82.50;;;13.90;70.66;98073.16;5005083;28;20476;-78
2023/05/20 02:10:36;;;;;;;5.13;4.20;;;14.20;82.60;;;13.99;70.82;98082.59;5011914;28;20475;-77
2023/05/20 02:13:04;;;;;;;4.03;3.63;;;14.10;82.70;;;13.97;70.75;98069.28;5016072;28;20513;-78
2023/05/20 02:15:32;;;;;;;4.70;4.30;;;14.10;82.70;;;13.93;70.85;98064.53;5003691;28;20805;-78
2023/05/20 02:17:59;;;;;;;4.23;3.87;;;14.10;83.00;;;13.83;70.83;98057.81;4995517;28;20918;-78
2023/05/20 02:20:26;;;;;;;5.17;4.67;;;14.00;83.00;;;13.88;70.67;98070.69;5016925;28;20967;-76
2023/05/20 02:22:53;;;;;;;5.37;4.87;;;14.00;83.10;;;13.79;71.15;98067.50;5021881;28;20653;-77
2023/05/20 02:25:20;;;;;;;4.83;4.37;;;13.90;83.20;;;13.76;71.36;98073.41;5021804;28;20574;-75
2023/05/20 02:27:48;;;;;;;4.97;4.40;;;13.90;83.30;;;13.41;71.48;98014.41;5020261;28;20546;-77
2023/05/20 02:30:17;;;;;;;5.87;4.53;;;13.90;83.50;;;13.66;71.75;98056.84;5006173;28;20876;-76
2023/05/20 02:32:44;;;;;;;5.37;4.87;;;13.80;83.70;;;13.67;71.53;98069.34;5007411;28;20567;-75
2023/05/20 02:35:12;;;;;;;4.20;3.70;;;13.70;83.90;;;13.65;72.11;98066.06;5000074;28;21034;-77
2023/05/20 02:37:39;;;;;;;4.00;3.50;;;13.70;84.20;;;13.42;72.67;98056.78;5002978;28;20513;-75
2023/05/20 02:40:09;;;;;;;5.80;4.67;;;13.60;84.40;;;13.49;72.46;98064.84;5016049;28;20468;-77
2023/05/20 02:42:36;;;;;;;5.50;4.10;;;13.60;84.60;;;13.28;73.04;98057.00;5014216;28;20485;-75
2023/05/20 02:45:04;;;;;;;7.53;4.27;;;13.60;84.80;;;13.43;72.30;98066.59;5019828;28;21015;-78
2023/05/20 02:47:33;;;;;;;4.43;4.03;;;13.50;84.80;;;12.84;73.36;97988.59;5010812;28;20957;-75
2023/05/20 02:50:00;;;;;;;5.00;4.20;;;13.50;85.30;;;13.40;72.99;98069.75;5029496;28;20492;-78
2023/05/20 02:52:27;;;;;;;5.40;4.90;;;13.50;85.40;;;13.30;73.37;98073.88;5002962;28;20445;-77
2023/05/20 02:54:55;;;;;;;8.00;4.70;;;13.40;86.00;;;13.23;73.48;98069.59;5002694;28;21119;-78
2023/05/20 02:57:22;;;;;;;5.63;4.77;;;13.40;85.90;;;13.23;73.75;98083.97;5002175;28;20520;-77
2023/05/20 02:59:49;;;;;;;5.67;4.23;;;13.40;86.10;;;13.15;73.93;98073.47;5001399;28;20490;-79
2023/05/20 03:02:17;;;;;;;5.93;4.73;;;13.30;86.30;;;13.32;73.30;98077.19;5010521;28;20451;-76
2023/05/20 03:04:46;;;;;;;5.30;4.83;;;13.40;86.30;;;13.23;73.54;98070.41;5018226;28;20606;-76
2023/05/20 03:07:18;;;;;;;5.10;4.60;;;13.40;86.70;;;13.13;73.90;98070.97;5016059;28;20949;-78
2023/05/20 03:09:45;;;;;;;6.60;4.63;;;13.30;86.60;;;13.21;74.23;98075.25;5016592;28;20468;-77
2023/05/20 03:12:13;;;;;;;5.97;4.43;;;13.30;86.90;;;13.23;74.04;98064.19;4996249;28;20479;-75
2023/05/20 03:14:41;;;;;;;5.67;4.40;;;13.30;86.80;;;13.17;73.95;98076.78;5015011;28;20546;-78
2023/05/20 03:17:09;;;;;;;5.60;4.90;;;13.30;86.80;;;13.21;74.01;98077.16;4994597;28;20473;-79
2023/05/20 03:19:36;;;;;;;5.93;4.63;;;13.30;86.90;;;13.22;73.95;98085.03;4997536;28;21898;-78
2023/05/20 03:22:05;;;;;;;5.30;4.30;;;13.30;87.00;;;13.25;73.89;98092.72;5013881;28;20464;-77
2023/05/20 03:24:32;;;;;;;5.80;4.43;;;13.30;87.20;;;13.23;73.91;98081.28;5016567;28;20471;-77
2023/05/20 03:26:59;;;;;;;5.60;4.73;;;13.30;87.00;;;13.24;73.96;98087.53;5017180;28;20511;-76
2023/05/20 03:29:27;;;;;;;6.23;4.00;;;13.30;87.20;;;13.28;73.69;98095.00;5023290;28;20468;-76
2023/05/20 03:31:54;;;;;;;5.83;5.23;;;13.30;87.30;;;13.18;74.19;98089.28;5024276;28;20459;-74
2023/05/20 03:34:21;;;;;;;5.47;4.53;;;13.20;87.40;;;13.20;74.17;98095.31;4998117;28;20495;-79
2023/05/20 03:36:50;;;;;;;6.73;4.90;;;13.20;87.70;;;13.24;74.08;98096.47;4999983;28;20872;-78
2023/05/20 03:39:19;;;;;;;6.10;5.50;;;13.20;87.70;;;13.33;73.90;98091.56;5016296;28;20478;-77
2023/05/20 03:41:46;;;;;;;5.33;4.13;;;13.20;87.80;;;13.28;74.14;98095.00;5026164;28;20459;-78
2023/05/20 03:44:13;;;;;;;7.00;5.23;;;13.20;87.90;;;13.11;74.43;98100.22;5020589;28;20474;-74
2023/05/20 03:46:40;;;;;;;7.57;4.90;;;13.30;87.50;;;13.12;74.92;98095.63;5017491;28;20457;-77
2023/05/20 03:49:08;;;;;;;5.70;4.80;;;13.30;87.90;;;13.15;74.55;98095.19;5016365;28;22661;-79
2023/05/20 03:51:35;;;;;;;10.53;5.93;;;13.30;87.80;;;13.15;74.58;98087.03;4995678;28;20537;-75
2023/05/20 03:54:02;;;;;;;6.40;5.07;;;13.30;87.80;;;13.15;74.74;98093.28;5012565;28;20457;-73
2023/05/20 03:56:31;;;;;;;4.97;4.47;;;13.30;87.70;;;13.14;74.59;98078.06;5013802;28;20466;-75
2023/05/20 03:58:58;;;;;;;4.93;4.43;;;13.30;87.80;;;13.12;74.74;98091.03;5010972;28;21104;-78
2023/05/20 04:01:25;;;;;;;5.80;4.40;;;13.30;88.00;;;13.20;74.43;98081.72;4995251;28;21238;-77
2023/05/20 04:03:53;;;;;;;7.13;4.57;;;13.30;87.90;;;13.26;74.44;98091.66;5015822;28;20455;-76
2023/05/20 04:06:21;;;;;;;6.47;5.80;;;13.30;87.80;;;13.20;74.71;98084.44;5010248;28;20479;-76
2023/05/20 04:08:48;;;;;;;6.80;4.90;;;13.30;87.70;;;13.30;74.45;98089.31;5028179;28;20547;-75
2023/05/20 04:11:15;;;;;;;7.20;5.60;;;13.30;87.90;;;13.16;74.51;98075.13;5001610;28;20448;-73
2023/05/20 04:13:44;;;;;;;5.43;4.90;;;13.40;87.60;;;13.36;74.11;98084.84;5014200;28;20467;-78
2023/05/20 04:16:11;;;;;;;6.87;5.60;;;13.40;87.80;;;13.19;74.63;98074.66;5012505;28;20498;-73
2023/05/20 04:18:39;;;;;;;6.10;5.50;;;13.40;87.60;;;13.14;75.09;98074.53;4997361;28;20479;-75
2023/05/20 04:21:07;;;;;;;6.67;5.50;;;13.40;87.80;;;13.17;75.10;98076.78;5003685;28;20519;-74
2023/05/20 04:23:34;;;;;;;6.90;5.03;;;13.30;88.20;;;13.32;74.27;98068.19;5022694;28;20472;-77
2023/05/20 04:26:01;;;;;;;8.03;5.80;;;13.40;87.90;;;13.38;74.13;98077.28;5011116;28;20467;-75
2023/05/20 04:28:30;;;;;;;7.60;5.20;;;13.40;87.50;;;13.25;74.61;98068.28;5019020;28;20471;-76
2023/05/20 04:31:03;;;;;;;6.23;5.63;;;13.40;87.90;;;13.34;73.85;98071.50;5008010;28;20902;-76
2023/05/20 04:33:31;;;;;;;7.60;5.30;;;13.40;87.50;;;13.24;74.40;98050.38;5013305;28;20459;-76
2023/05/20 04:35:59;;;;;;;7.90;5.70;;;13.50;87.60;;;13.17;74.91;98065.94;5007949;28;20511;-79
2023/05/20 04:38:28;;;;;;;7.77;5.03;;;13.50;87.40;;;13.28;74.74;98078.72;4995771;28;21031;-76
2023/05/20 04:40:56;;;;;;;7.27;5.70;;;13.50;87.60;;;13.39;74.41;98074.38;5013174;28;20467;-82
2023/05/20 04:43:24;;;;;;;6.33;5.10;;;13.50;87.30;;;13.58;73.32;98067.00;4992860;28;20444;-78
2023/05/20 04:45:53;;;;;;;7.13;6.00;;;13.80;86.60;;;13.72;71.59;98023.31;5017783;28;21308;-79
2023/05/20 04:48:22;;;;;;;7.10;6.30;;;14.20;85.00;;;14.34;70.27;98079.06;5025657;28;20506;-79
2023/05/20 04:50:50;;;;;;;8.23;5.43;;;14.60;83.70;;;15.07;67.54;98077.78;5020405;28;20490;-76
2023/05/20 04:53:18;;;;;;;6.03;5.43;;;15.30;82.30;;;15.29;66.55;98078.75;5006850;28;20496;-77
2023/05/20 04:55:46;;;;;;;6.53;5.33;;;15.60;81.30;;;14.57;68.80;98088.22;5000203;28;20524;-75
2023/05/20 04:58:16;;;;;;;6.23;5.50;;;15.20;81.60;;;14.33;70.01;98082.84;4996998;28;20451;-77
2023/05/20 05:00:44;;;;;;;5.93;5.33;;;14.80;82.40;;;14.35;70.22;98079.88;5001931;28;20573;-79
2023/05/20 05:03:12;;;;;;;6.60;5.80;;;14.70;82.80;;;14.32;70.10;98075.72;5018532;28;20692;-75
2023/05/20 05:05:41;;;;;;;6.43;5.23;;;14.60;82.80;;;14.25;70.69;98083.19;5020860;28;20457;-76
2023/05/20 05:08:10;;;;;;;8.87;5.20;;;14.60;83.10;;;14.72;69.03;98085.84;5021091;28;20548;-78
2023/05/20 05:10:37;;;;;;;5.63;4.90;;;14.90;82.70;;;15.17;67.34;98063.56;5016814;28;20460;-77
2023/05/20 05:13:05;;;;;;;7.50;5.67;;;15.40;81.40;;;15.65;65.36;98036.88;5013968;28;20465;-77
2023/05/20 05:15:32;;;;;;;6.17;5.00;;;16.00;80.90;;;16.31;63.30;98060.75;5018555;28;20526;-76
2023/05/20 05:17:59;;;;;;;7.10;6.07;;;16.60;79.30;;;16.17;63.53;98059.47;4998893;28;21070;-77
2023/05/20 05:20:27;;;;;;;5.63;5.13;;;16.70;78.40;;;16.37;62.92;98062.47;5000656;28;20484;-77
2023/05/20 05:22:55;;;;;;;6.03;5.37;;;16.80;77.90;;;16.73;61.11;98056.66;4997380;28;20465;-75
2023/05/20 05:25:22;;;;;;;6.30;5.60;;;17.20;76.70;;;16.52;61.98;98052.84;5005530;28;21176;-78
2023/05/20 05:27:50;;;;;;;6.23;5.63;;;17.10;76.80;;;16.65;61.50;98052.47;5022936;28;20517;-76
2023/05/20 05:30:17;;;;;;;6.57;5.67;;;17.10;77.00;;;17.05;60.58;98052.38;5005857;28;20587;-74
2023/05/20 05:32:44;;;;;;;5.87;5.30;;;17.50;75.90;;;16.83;60.59;98039.56;5020576;28;20462;-77
2023/05/20 05:35:12;;;;;;;8.13;5.50;;;17.50;75.40;;;17.15;60.26;98051.69;5016777;28;20571;-80
2023/05/20 05:37:39;;;;;;;6.53;5.70;;;17.70;75.00;;;17.47;59.10;98048.94;5000848;28;21027;-77
2023/05/20 05:40:09;;;;;;;6.53;5.30;;;18.00;74.20;;;17.27;59.27;98038.66;5016716;28;20482;-76
2023/05/20 05:42:36;;;;;;;6.03;5.43;;;18.00;73.50;;;17.04;59.69;98028.88;5013558;28;20470;-78
2023/05/20 05:45:04;;;;;;;6.27;5.50;;;17.80;73.80;;;16.55;61.58;98046.88;5015965;28;20567;-73
2023/05/20 05:47:32;;;;;;;6.40;5.40;;;17.30;74.50;;;16.89;60.84;98027.63;4994145;28;21425;-76
2023/05/20 05:49:59;;;;;;;7.00;5.70;;;17.40;75.20;;;17.36;59.34;98039.84;5014199;28;20947;-77
2023/05/20 05:52:27;;;;;;;6.40;5.73;;;17.90;73.80;;;17.21;59.45;98035.09;4998709;28;20454;-75
2023/05/20 05:54:55;;;;;;;6.60;5.67;;;17.80;73.30;;;16.71;60.34;98045.97;4996754;28;20507;-75
2023/05/20 05:57:23;;;;;;;7.30;5.30;;;17.40;73.40;;;17.15;60.32;98052.47;5000505;28;20469;-76
2023/05/20 05:59:51;;;;;;;6.83;6.13;;;17.40;74.40;;;16.82;60.11;98035.19;5020170;28;20524;-76
2023/05/20 06:02:18;;;;;;;6.73;6.03;;;17.50;73.30;;;16.61;60.74;98051.34;5021446;28;20531;-77
2023/05/20 06:04:45;;;;;;;7.57;5.73;;;17.30;73.70;;;16.62;61.09;98050.25;4996652;28;20493;-75
2023/05/20 06:07:12;;;;;;;6.57;5.83;;;17.20;74.10;;;16.64;60.45;98047.25;4997231;28;20490;-77
2023/05/20 06:09:40;;;;;;;7.00;6.30;;;17.30;73.80;;;16.39;61.36;98049.41;5017040;28;20460;-78
2023/05/20 06:12:08;;;;;;;6.53;5.83;;;17.00;74.30;;;16.45;61.24;98042.13;5015343;28;20461;-78
2023/05/20 06:14:36;;;;;;;6.13;5.53;;;17.00;74.30;;;16.17;62.00;98026.78;4998242;28;20820;-77
2023/05/20 06:17:05;;;;;;;6.63;5.97;;;16.70;74.60;;;15.76;63.36;98027.78;5012811;28;20565;-76
2023/05/20 06:19:32;;;;;;;6.40;5.60;;;16.20;75.90;;;15.99;63.51;98021.34;5019429;28;20488;-76
2023/05/20 06:21:59;;;;;;;6.67;6.07;;;16.20;77.00;;;16.18;62.74;98034.69;5024812;28;20504;-75
2023/05/20 06:24:26;;;;;;;6.30;5.70;;;16.30;76.80;;;16.00;62.92;98019.47;5041213;28;20469;-78
2023/05/20 06:26:53;;;;;;;6.90;5.97;;;16.30;76.70;;;15.88;63.68;98014.06;5016430;28;20468;-78
2023/05/20 06:29:20;;;;;;;6.43;5.80;;;16.10;77.00;;;15.93;63.45;98032.41;5024517;28;20465;-81
2023/05/20 06:31:49;;;;;;;7.10;6.40;;;16.10;76.90;;;15.71;63.45;98020.38;4999538;28;20531;-78
2023/05/20 06:34:16;;;;;;;6.03;5.43;;;16.00;77.10;;;15.93;63.80;98021.53;5017782;28;20458;-74
2023/05/20 06:36:44;;;;;;;6.40;5.70;;;16.10;77.50;;;16.27;62.40;98002.34;4991529;28;20485;-75
2023/05/20 06:39:11;;;;;;;5.83;5.27;;;16.30;77.40;;;16.26;62.29;98028.81;5019423;28;20495;-75
2023/05/20 06:41:39;;;;;;;7.23;5.90;;;16.40;76.90;;;16.39;61.69;98019.41;5005661;28;20540;-77
2023/05/20 06:44:06;;;;;;;6.13;5.53;;;16.60;76.50;;;16.22;61.69;98021.38;5003317;28;20458;-76
2023/05/20 06:46:34;;;;;;;6.90;6.13;;;16.50;76.00;;;15.90;62.12;98022.03;5015191;28;20457;-77
2023/05/20 06:49:03;;;;;;;6.20;5.40;;;16.30;76.10;;;16.12;62.23;98035.69;5007024;28;20471;-78
2023/05/20 06:51:31;;;;;;;9.70;6.00;;;16.30;76.40;;;16.08;62.33;98024.47;5019816;28;20462;-77
2023/05/20 06:53:58;;;;;;;7.43;6.00;;;16.30;76.30;;;16.16;62.39;98030.56;5003457;28;20450;-81
2023/05/20 06:56:25;;;;;;;7.63;6.83;;;16.30;76.30;;;16.11;62.64;98023.97;4999460;28;20465;-76
2023/05/20 06:58:53;;;;;;;7.07;6.37;;;16.30;76.50;;;16.13;62.33;98019.06;4997818;28;20512;-77
2023/05/20 07:01:20;;;;;;;8.23;6.53;;;16.30;76.50;;;16.26;62.29;98008.88;5015191;28;21122;-74
2023/05/20 07:03:47;;;;;;;6.90;6.20;;;16.40;76.70;;;16.16;61.34;97965.16;5020475;28;20544;-77
2023/05/20 07:06:15;;;;;;;6.90;6.10;;;16.60;76.30;;;16.52;61.37;98023.66;4997655;28;20469;-75
2023/05/20 07:08:43;;;;;;;6.60;5.90;;;16.70;76.00;;;16.24;61.20;97961.97;4993828;28;20492;-77
2023/05/20 07:11:10;;;;;;;6.57;5.93;;;16.70;75.90;;;16.61;60.81;98004.13;5003402;28;20465;-80
2023/05/20 07:13:38;;;;;;;7.77;6.63;;;16.80;75.90;;;17.09;59.87;98013.38;5021007;28;20466;-76
2023/05/20 07:16:05;;;;;;;6.63;5.77;;;17.00;75.80;;;17.02;58.97;97990.97;5015007;28;20455;-77
2023/05/20 07:18:33;;;;;;;6.80;6.10;;;17.20;74.80;;;16.89;59.52;98008.50;5013986;28;20469;-76
2023/05/20 07:21:00;;;;;;;6.70;5.40;;;17.10;74.40;;;16.92;59.63;98010.75;4991378;28;20810;-73
2023/05/20 07:23:29;;;;;;;6.87;6.17;;;17.00;74.70;;;17.17;59.25;98006.63;4997169;28;20512;-77
2023/05/20 07:25:56;;;;;;;7.93;6.23;;;17.20;74.80;;;17.06;59.58;98003.00;5000462;28;20920;-79
2023/05/20 07:28:23;;;;;;;7.87;6.70;;;17.20;74.60;;;17.22;58.76;98003.13;5001859;28;20472;-75
2023/05/20 07:30:50;;;;;;;6.10;5.50;;;17.30;74.00;;;17.28;58.13;97989.28;5019253;28;20460;-76
2023/05/20 07:33:17;;;;;;;6.00;5.40;;;17.40;73.30;;;17.20;58.03;97994.38;4993504;28;20546;-82
2023/05/20 07:35:45;;;;;;;7.00;5.80;;;17.40;73.10;;;17.26;58.37;97987.88;5019973;28;20477;-76
2023/05/20 07:38:13;;;;;;;6.03;5.43;;;17.40;73.40;;;17.21;58.55;97996.88;5004111;28;20463;-76
2023/05/20 07:40:41;;;;;;;6.57;5.90;;;17.40;73.20;;;17.48;58.50;97995.97;5017553;28;20978;-76
2023/05/20 07:43:08;;;;;;;6.47;5.67;;;17.50;73.70;;;17.45;58.27;97999.22;5019008;28;20855;-76
2023/05/20 07:45:36;;;;;;;5.70;5.20;;;17.50;73.20;;;17.41;57.69;97995.38;5019845;28;21085;-77
2023/05/20 07:48:04;;;;;;;7.23;6.17;;;17.50;72.60;;;17.31;57.67;97993.41;5006885;28;20457;-74
2023/05/20 07:50:34;;;;;;;8.33;5.63;;;17.40;72.20;;;17.59;57.42;97979.69;5005278;28;20835;-76
2023/05/20 07:53:02;;;;;;;5.70;5.07;;;17.60;72.80;;;17.82;56.85;97983.94;5016649;28;20958;-77
2023/05/20 07:55:30;;;;;;;6.60;5.90;;;17.80;72.50;;;17.54;57.21;97989.47;5017105;28;20466;-76
2023/05/20 07:57:59;;;;;;;6.07;5.47;;;17.70;71.80;;;17.51;56.03;97927.16;5010441;28;20467;-75
2023/05/20 08:00:26;;;;;;;6.87;5.73;;;17.90;71.90;;;17.99;56.19;97986.50;5010102;28;20481;-77
2023/05/20 08:02:53;;;;;;;6.70;6.10;;;18.00;71.60;;;17.72;56.85;97984.69;5015017;28;20957;-75
2023/05/20 08:05:21;;;;;;;6.97;6.00;;;17.90;71.50;;;17.69;56.63;97993.41;5016351;28;20465;-79
2023/05/20 08:07:48;;;;;;;7.10;5.67;;;17.80;71.30;;;17.82;57.12;97984.75;5013344;28;20794;-78
2023/05/20 08:10:15;;;;;;;7.07;5.10;;;17.80;71.90;;;18.08;56.55;97993.13;5004615;28;20466;-74
2023/05/20 08:12:43;;;;;;;6.37;5.77;;;18.00;71.90;;;17.97;56.49;97985.94;5000235;28;20453;-77
2023/05/20 08:15:12;;;;;;;6.20;5.60;;;18.10;71.30;;;18.37;55.70;97973.56;5014570;28;20548;-78
2023/05/20 08:17:39;;;;;;;6.37;5.77;;;18.30;71.20;;;18.56;55.21;97970.34;5012437;28;20544;-78
2023/05/20 08:20:08;;;;;;;6.60;6.00;;;18.50;70.90;;;18.63;54.65;97970.09;5014036;28;20816;-76
2023/05/20 08:22:36;;;;;;;6.00;5.40;;;18.60;70.30;;;18.90;54.20;97969.06;5013893;28;20467;-77
2023/05/20 08:25:05;;;;;;;6.43;5.50;;;18.70;70.20;;;18.77;54.62;97959.47;5012871;28;20458;-77
2023/05/20 08:27:32;;;;;;;6.67;6.03;;;18.80;69.90;;;18.68;54.70;97957.25;5017527;28;20453;-77
2023/05/20 08:30:00;;;;;;;7.40;6.60;;;18.70;69.60;;;18.51;54.18;97934.78;5015420;28;20458;-77
2023/05/20 08:32:29;;;;;;;7.80;6.13;;;18.70;68.90;;;18.95;53.75;97950.72;5012369;28;20553;-80
2023/05/20 08:35:00;;;;;;;5.90;5.33;;;18.80;69.30;;;19.08;53.66;97945.84;5002700;28;20466;-74
2023/05/20 08:37:27;;;;;;;7.50;6.23;;;19.00;68.90;;;19.14;53.27;97963.09;5010724;28;20481;-78
2023/05/20 08:39:55;;;;;;;5.90;5.30;;;19.10;68.40;;;19.03;52.60;97952.13;5018453;28;20651;-78
2023/05/20 08:42:23;;;;;;;5.83;5.30;;;19.10;67.30;;;19.11;52.09;97954.34;5028353;28;20485;-75
2023/05/20 08:44:52;;;;;;;6.10;5.50;;;19.20;66.50;;;19.11;52.69;97948.88;5019868;28;20459;-76
2023/05/20 08:47:21;;;;;;;7.33;6.40;;;19.30;66.80;;;18.98;52.42;97961.13;5035938;28;20458;-77
2023/05/20 08:49:50;;;;;;;6.70;6.07;;;19.10;66.20;;;19.19;52.20;97944.75;5003242;28;20497;-78
2023/05/20 08:52:21;;;;;;;6.63;5.70;;;19.20;66.30;;;19.30;52.19;97947.47;4999957;28;20520;-76
2023/05/20 08:54:50;;;;;;;6.10;5.10;;;19.40;66.60;;;19.69;51.63;97955.13;5008046;28;20556;-76
2023/05/20 08:57:19;;;;;;;5.80;5.30;;;19.50;66.60;;;19.49;51.71;97942.25;5013054;28;20460;-80
2023/05/20 08:59:47;;;;;;;7.63;5.53;;;19.50;65.70;;;19.59;51.49;97950.47;4992884;28;21162;-74
2023/05/20 09:02:14;;;;;;;6.70;6.03;;;19.60;65.60;;;19.44;51.36;97962.25;5013002;28;20458;-78
2023/05/20 09:04:41;;;;;;;6.43;5.80;;;19.50;65.00;;;19.57;51.44;97951.84;4997077;28;20463;-78
2023/05/20 09:07:10;;;;;;;6.90;6.20;;;19.50;65.10;;;19.57;51.21;97951.84;5016700;28;20458;-77
2023/05/20 09:09:37;;;;;;;6.77;6.17;;;19.60;64.90;;;19.42;50.89;97958.97;5010940;28;20487;-77
2023/05/20 09:12:05;;;;;;;6.40;5.80;;;19.60;64.30;;;19.56;51.18;97944.72;5017025;28;20555;-79
2023/05/20 09:14:33;;;;;;;6.97;6.27;;;19.50;64.70;;;19.82;50.30;97938.09;5016121;28;20765;-73
2023/05/20 09:17:00;;;;;;;6.73;6.03;;;19.70;64.50;;;19.65;50.91;97951.28;4994458;28;20845;-76
2023/05/20 09:19:27;;;;;;;6.87;6.17;;;19.70;64.10;;;19.68;51.03;97939.78;4997515;28;20455;-78
2023/05/20 09:21:55;;;;;;;6.80;6.10;;;19.70;64.20;;;19.96;50.59;97952.06;4996963;28;20474;-78
2023/05/20 09:24:26;;;;;;;5.80;5.20;;;19.90;64.30;;;19.56;50.99;97911.84;5015854;28;20469;-77
2023/05/20 09:26:53;;;;;;;7.90;5.70;;;19.90;64.30;;;19.63;51.10;97954.31;4993257;28;20491;-76
2023/05/20 09:29:20;;;;;;;6.93;5.77;;;19.70;64.30;;;19.59;51.32;97950.47;5020631;28;20543;-79
2023/05/20 09:31:48;;;;;;;5.60;5.07;;;19.60;64.40;;;19.92;50.95;97952.88;5013589;28;20455;-75
2023/05/20 09:34:16;;;;;;;6.13;5.53;;;19.90;64.50;;;20.03;50.54;97957.25;5017156;28;20464;-76
2023/05/20 09:36:44;;;;;;;5.80;5.20;;;20.00;64.20;;;20.28;49.87;97957.44;5016466;28;20596;-76
2023/05/20 09:39:15;;;;;;;6.97;6.20;;;20.20;63.90;;;20.27;49.36;97950.31;5023099;28;20511;-76
2023/05/20 09:41:54;;;;;;;7.17;6.47;;;20.30;62.90;;;20.03;50.06;97943.53;5019124;28;20606;-75
2023/05/20 09:44:22;;;;;;;6.50;5.80;;;20.20;62.90;;;20.62;49.71;97946.56;5022472;28;20526;-77
2023/05/20 09:46:54;;;;;;;6.97;6.27;;;20.30;63.80;;;20.35;49.42;97944.25;5018561;28;20547;-75
2023/05/20 09:49:23;;;;;;;6.30;5.70;;;20.40;62.80;;;20.56;49.11;97941.38;5019465;28;20464;-76
2023/05/20 09:51:51;;;;;;;7.07;5.80;;;20.40;62.70;;;20.58;49.33;97951.00;5013694;28;20465;-76
2023/05/20 09:54:20;;;;;;;6.73;6.13;;;20.50;62.80;;;20.52;48.49;97935.63;5022859;28;20506;-77
2023/05/20 09:56:49;;;;;;;6.27;5.77;;;20.60;61.70;;;20.86;48.49;97934.09;5002247;28;20450;-78
2023/05/20 09:59:17;;;;;;;6.90;5.70;;;20.70;62.30;;;21.16;47.85;97922.06;5022331;28;20465;-76
2023/05/20 10:01:45;;;;;;;6.20;5.60;;;21.00;62.00;;;20.91;48.18;97921.16;5003404;28;21079;-76
2023/05/20 10:04:14;;;;;;;6.50;5.90;;;21.00;61.40;;;20.99;47.62;97927.97;4999384;28;20988;-75
2023/05/20 10:07:08;;;;;;;7.03;6.03;;;21.00;61.20;;;21.20;48.03;97928.63;5016429;28;20462;-76
2023/05/20 10:09:55;;;;;;;6.80;6.20;;;21.00;61.50;;;21.38;47.57;97918.03;5001887;28;20498;-76
2023/05/20 10:12:34;;;;;;;6.37;5.77;;;21.20;61.70;;;21.32;47.73;97913.69;5004743;28;20817;-75
2023/05/20 10:15:16;;;;;;;6.43;5.80;;;21.30;61.40;;;21.45;47.41;97917.69;5019638;28;20564;-76
2023/05/20 10:17:55;;;;;;;7.77;5.43;;;21.50;61.00;;;21.67;47.27;97921.91;5015880;28;20765;-77
2023/05/20 10:20:23;;;;;;;7.67;6.13;;;21.50;60.80;;;21.78;46.51;97921.50;5009206;28;21374;-76
2023/05/20 10:22:57;;;;;;;6.40;5.80;;;21.70;60.10;;;21.99;47.08;97921.28;4997654;28;20603;-76
2023/05/20 10:25:26;;;;;;;7.07;6.33;;;21.80;60.90;;;21.99;46.17;97910.28;5020854;28;21037;-75